Portada
METAR-TAF:

METAR-TAF

Aeroports :

Cúcuta, Colòmbia

latitud: 07-56N, longitud: 072-31W, altitud: 250 m

Observació

L'informe es va fer fa 14 minuts, a les 10:00 UTC
Vent 2 kt amb direcció variable
Temperatura 25°C
Humitat 100%
Pressió 1012 hPa
Visibilitat: 7000 m
Escasses núvols a una alçada de 1500 ft
Cel ennuvolat a una alçada de 7000 ft

METAR: SKCC 151000Z VRB02KT 7000 FEW015 BKN070 25/25 Q1012 RMK BR

Hora: 05:14 (10:14 UTC)

Pronòstic

L'informe es va fer fa 5 hores i 44 minuts, a les 04:30 UTC
Pronòstic vàlid del 15 a les 06 UTC al 16 a les 06 UTC
Vent 2 kt amb direcció variable
Visibilitat: 7000 m
Núvols disperses a una alçada de 2000 ft
Evolucionant progressivament
l' 15 a les 13 UTC al 15 a les 15 UTC
Vent 10 kt del Nord
Evolucionant progressivament
l' 16 a les 00 UTC al 16 a les 02 UTC
Vent 2 kt amb direcció variable

TAF: SKCC 150430Z 1506/1606 VRB02KT 7000 SCT020 BECMG 1513/1515 36010KT BECMG 1600/1602 VRB02KT TX32/1519Z TN24/1510Z

Observacions i pronòstics meteorològics de més de 4000 aeroports (METAR i TAF).

Les estacions disponibles són els punts grocs i vermells al mapa.

Posi el ratolí al punt desitjat per veure el nom de l'estació.

Feu clic per veure les observacions i els pronòstics meteorològics.

Per canviar el mapa: feu clic els botons verds amb una creu de color negre per apropar; al botó verd amb un guió per allunyar la imatge; o en les fletxes verdes per a mapes adjacents.


METAR-TAF: